Time;durP1;ratioP1;P1;durP2;ratioP2;P2;SDS_P1;SDS_P2;PMS_P1;PMS_P2;Temp;Humidity;BMP_temperature;BMP_pressure;BME280_temperature;BME280_humidity;BME280_pressure;Samples;Min_cycle;Max_cycle;Signal;HPM_P1;HPM_P2
2022/06/28 00:01:34;;;;;;;2.80;1.27;;;;;;;;;;4970916;28;20050;-84
2022/06/28 00:03:59;;;;;;;1.05;1.05;;;;;;;;;;4960915;28;20493;-84
2022/06/28 00:06:25;;;;;;;1.83;1.20;;;;;;;;;;4981252;28;20037;-84
2022/06/28 00:08:50;;;;;;;1.70;1.52;;;;;;;;;;4955711;28;20405;-84
2022/06/28 00:11:15;;;;;;;3.63;1.30;;;;;;;;;;4973305;28;20077;-84
2022/06/28 00:13:41;;;;;;;1.00;1.00;;;;;;;;;;4966974;28;20046;-84
2022/06/28 00:16:06;;;;;;;3.55;1.13;;;;;;;;;;4979552;28;20030;-84
2022/06/28 00:18:37;;;;;;;1.50;1.40;;;;;;;;;;4955380;28;20022;-84
2022/06/28 00:21:03;;;;;;;3.53;1.17;;;;;;;;;;4970823;28;20046;-84
2022/06/28 00:23:30;;;;;;;4.57;1.63;;;;;;;;;;4972293;28;20038;-84
2022/06/28 00:25:55;;;;;;;3.25;1.23;;;;;;;;;;4961477;28;20023;-84
2022/06/28 00:28:21;;;;;;;1.75;1.20;;;;;;;;;;4981629;28;20070;-84
2022/06/28 00:30:46;;;;;;;1.80;1.17;;;;;;;;;;4955157;28;20027;-84
2022/06/28 00:33:12;;;;;;;1.20;1.13;;;;;;;;;;4974808;28;20396;-84
2022/06/28 00:35:38;;;;;;;1.67;0.93;;;;;;;;;;4977230;28;20043;-84
2022/06/28 00:38:03;;;;;;;1.55;1.15;;;;;;;;;;4986321;28;20100;-84
2022/06/28 00:40:33;;;;;;;3.22;1.42;;;;;;;;;;4976833;28;20023;-84
2022/06/28 00:42:59;;;;;;;2.70;1.00;;;;;;;;;;4952449;28;20027;-84
2022/06/28 00:45:25;;;;;;;2.50;1.20;;;;;;;;;;4961185;28;20034;-84
2022/06/28 00:47:52;;;;;;;2.03;1.17;;;;;;;;;;4980028;28;20026;-84
2022/06/28 00:50:18;;;;;;;6.97;1.35;;;;;;;;;;4972307;28;20034;-84
2022/06/28 00:53:11;;;;;;;2.47;1.10;;;;;;;;;;4954757;28;20031;-83
2022/06/28 00:55:36;;;;;;;4.13;1.40;;;;;;;;;;4990140;28;20039;-85
2022/06/28 00:58:03;;;;;;;2.20;1.40;;;;;;;;;;4972691;28;20026;-86
2022/06/28 01:00:31;;;;;;;12.10;1.45;;;;;;;;;;4978956;28;20046;-86
2022/06/28 01:02:57;;;;;;;3.28;1.10;;;;;;;;;;4967865;28;20026;-86
2022/06/28 01:05:22;;;;;;;4.40;1.30;;;;;;;;;;4977290;28;20027;-86
2022/06/28 01:07:48;;;;;;;10.20;1.45;;;;;;;;;;4969059;28;20512;-86
2022/06/28 01:10:13;;;;;;;2.83;1.45;;;;;;;;;;4977151;28;20022;-85
2022/06/28 01:12:38;;;;;;;1.17;1.17;;;;;;;;;;4978035;28;20037;-85
2022/06/28 01:15:05;;;;;;;1.40;1.27;;;;;;;;;;4961127;28;20038;-86
2022/06/28 01:17:32;;;;;;;1.33;1.10;;;;;;;;;;4975863;28;20114;-86
2022/06/28 01:19:57;;;;;;;2.08;1.30;;;;;;;;;;4970479;28;20042;-86
2022/06/28 01:22:26;;;;;;;2.38;1.02;;;;;;;;;;4984446;28;20054;-86
2022/06/28 01:24:52;;;;;;;1.20;1.10;;;;;;;;;;4981938;28;20062;-85
2022/06/28 01:27:18;;;;;;;2.40;1.27;;;;;;;;;;4962057;28;20482;-86
2022/06/28 01:29:43;;;;;;;3.65;1.42;;;;;;;;;;4968549;28;20029;-85
2022/06/28 01:32:08;;;;;;;3.45;1.45;;;;;;;;;;4958753;28;20018;-84
2022/06/28 01:34:34;;;;;;;4.90;1.63;;;;;;;;;;4992120;28;20102;-88
2022/06/28 01:36:59;;;;;;;4.90;1.25;;;;;;;;;;5003259;28;20018;-89
2022/06/28 01:39:25;;;;;;;1.58;1.38;;;;;;;;;;4999554;28;20050;-87
2022/06/28 01:41:51;;;;;;;1.88;1.42;;;;;;;;;;5009494;28;20066;-88
2022/06/28 01:44:16;;;;;;;3.15;1.42;;;;;;;;;;4989450;28;20023;-88
2022/06/28 01:46:41;;;;;;;1.63;1.08;;;;;;;;;;5005084;28;20034;-88
2022/06/28 01:49:07;;;;;;;2.08;1.42;;;;;;;;;;4996716;28;20018;-88
2022/06/28 01:51:33;;;;;;;4.15;1.35;;;;;;;;;;5008666;28;20017;-87
2022/06/28 01:53:58;;;;;;;1.13;1.00;;;;;;;;;;5005891;28;20015;-88
2022/06/28 01:56:24;;;;;;;2.20;1.10;;;;;;;;;;4975295;28;20039;-85
2022/06/28 01:58:50;;;;;;;1.35;1.25;;;;;;;;;;4966855;28;20030;-85
2022/06/28 02:01:15;;;;;;;2.05;1.13;;;;;;;;;;4978489;28;20086;-85
2022/06/28 02:03:41;;;;;;;7.28;1.50;;;;;;;;;;4976620;28;20045;-86
2022/06/28 02:06:07;;;;;;;11.57;1.83;;;;;;;;;;4957138;28;20441;-87
2022/06/28 02:08:36;;;;;;;1.30;1.20;;;;;;;;;;4958626;28;20066;-85
2022/06/28 02:11:03;;;;;;;1.42;1.35;;;;;;;;;;4978502;28;20035;-85
2022/06/28 02:13:29;;;;;;;4.50;1.30;;;;;;;;;;4978009;28;20709;-86
2022/06/28 02:15:54;;;;;;;3.58;1.27;;;;;;;;;;4962038;28;20043;-85
2022/06/28 02:18:20;;;;;;;5.32;1.20;;;;;;;;;;4958402;28;20023;-86
2022/06/28 02:20:45;;;;;;;4.07;1.23;;;;;;;;;;4958412;28;20026;-86
2022/06/28 02:23:11;;;;;;;1.35;1.25;;;;;;;;;;4953463;28;20027;-86
2022/06/28 02:25:36;;;;;;;5.95;1.20;;;;;;;;;;4957822;28;20114;-87
2022/06/28 02:28:04;;;;;;;1.52;1.42;;;;;;;;;;4976428;28;20027;-84
2022/06/28 02:30:30;;;;;;;5.63;1.48;;;;;;;;;;4986310;28;20501;-86
2022/06/28 02:32:55;;;;;;;4.28;1.65;;;;;;;;;;4986902;28;20045;-86
2022/06/28 02:40:48;;;;;;;2.10;1.20;;;;;;;;;;4975604;28;20063;-83
2022/06/28 02:43:13;;;;;;;3.00;1.40;;;;;;;;;;4981146;28;20031;-85
2022/06/28 02:45:42;;;;;;;2.92;1.38;;;;;;;;;;4966103;28;20101;-86
2022/06/28 02:48:08;;;;;;;3.97;1.55;;;;;;;;;;4972098;28;20023;-85
2022/06/28 02:50:34;;;;;;;1.67;1.48;;;;;;;;;;4978192;28;20602;-85
2022/06/28 02:53:00;;;;;;;8.52;1.77;;;;;;;;;;4969374;28;20042;-85
2022/06/28 02:55:25;;;;;;;2.20;1.20;;;;;;;;;;4959291;28;20038;-86
2022/06/28 02:57:51;;;;;;;5.38;1.38;;;;;;;;;;4957684;28;20027;-85
2022/06/28 03:00:19;;;;;;;3.35;1.52;;;;;;;;;;4977328;28;20430;-85
2022/06/28 03:02:46;;;;;;;3.30;1.58;;;;;;;;;;4961188;28;20030;-84
2022/06/28 03:05:17;;;;;;;4.93;1.38;;;;;;;;;;4957541;28;20468;-84
2022/06/28 03:07:43;;;;;;;2.33;1.33;;;;;;;;;;4954870;28;20038;-84
2022/06/28 03:10:10;;;;;;;1.58;1.48;;;;;;;;;;4979063;28;20027;-84
2022/06/28 03:12:36;;;;;;;5.55;2.05;;;;;;;;;;4992995;28;20504;-84
2022/06/28 03:15:01;;;;;;;3.90;1.85;;;;;;;;;;4982720;28;20034;-83
2022/06/28 03:17:27;;;;;;;1.92;1.50;;;;;;;;;;4974198;28;20093;-85
2022/06/28 03:19:52;;;;;;;3.28;1.30;;;;;;;;;;4956013;28;20054;-84
2022/06/28 03:22:18;;;;;;;3.88;1.42;;;;;;;;;;4968663;28;20022;-84
2022/06/28 03:24:43;;;;;;;6.82;1.80;;;;;;;;;;4975153;28;20019;-85
2022/06/28 03:27:09;;;;;;;3.08;1.60;;;;;;;;;;4969194;28;20407;-85
2022/06/28 03:29:35;;;;;;;3.13;1.48;;;;;;;;;;4976149;28;20170;-83
2022/06/28 03:32:00;;;;;;;4.18;1.48;;;;;;;;;;4964802;28;20122;-83
2022/06/28 03:34:26;;;;;;;3.83;1.77;;;;;;;;;;4956593;28;20027;-83
2022/06/28 03:36:51;;;;;;;2.65;1.48;;;;;;;;;;4968409;28;20400;-83
2022/06/28 03:39:17;;;;;;;1.80;1.70;;;;;;;;;;4972668;28;20124;-83
2022/06/28 03:41:42;;;;;;;5.90;1.90;;;;;;;;;;4979900;28;20027;-83
2022/06/28 03:44:08;;;;;;;1.77;1.63;;;;;;;;;;4983374;28;20101;-83
2022/06/28 03:46:33;;;;;;;1.80;1.70;;;;;;;;;;4954414;28;20038;-83
2022/06/28 03:48:59;;;;;;;2.88;1.70;;;;;;;;;;4956142;28;20105;-83
2022/06/28 03:51:24;;;;;;;5.95;1.60;;;;;;;;;;4955165;28;20097;-83
2022/06/28 03:53:49;;;;;;;1.75;1.65;;;;;;;;;;4957202;28;20026;-83
2022/06/28 03:56:15;;;;;;;3.33;1.73;;;;;;;;;;4956928;28;20113;-83
2022/06/28 03:58:40;;;;;;;4.68;1.80;;;;;;;;;;4973523;28;20046;-83
2022/06/28 04:01:06;;;;;;;2.00;1.80;;;;;;;;;;4982331;28;20096;-85
2022/06/28 04:03:31;;;;;;;5.00;1.85;;;;;;;;;;4963798;28;20030;-85
2022/06/28 04:06:01;;;;;;;3.97;2.00;;;;;;;;;;4977129;28;20034;-83
2022/06/28 04:08:26;;;;;;;6.93;2.08;;;;;;;;;;4974652;28;20058;-85
2022/06/28 04:11:13;;;;;;;3.53;1.83;;;;;;;;;;4971820;28;20026;-85
2022/06/28 04:13:43;;;;;;;6.28;1.88;;;;;;;;;;4976682;28;20042;-85
2022/06/28 04:16:08;;;;;;;4.83;2.10;;;;;;;;;;4984679;28;20116;-85
2022/06/28 04:18:34;;;;;;;3.83;2.20;;;;;;;;;;4961172;28;20280;-85
2022/06/28 04:21:00;;;;;;;4.57;2.00;;;;;;;;;;4960853;28;20114;-84
2022/06/28 04:23:25;;;;;;;6.30;2.70;;;;;;;;;;4960532;28;20399;-84
2022/06/28 04:25:51;;;;;;;5.93;2.17;;;;;;;;;;4976564;28;20039;-84
2022/06/28 04:28:16;;;;;;;1.98;1.88;;;;;;;;;;4956656;28;20023;-85
2022/06/28 04:30:42;;;;;;;6.22;2.60;;;;;;;;;;4974415;28;20022;-85
2022/06/28 04:33:07;;;;;;;5.93;2.58;;;;;;;;;;4988848;28;20053;-85
2022/06/28 04:35:33;;;;;;;5.85;2.65;;;;;;;;;;4960630;28;20070;-85
2022/06/28 04:37:58;;;;;;;3.13;2.63;;;;;;;;;;4976876;28;20038;-83
2022/06/28 04:40:24;;;;;;;4.47;2.58;;;;;;;;;;4978306;28;20042;-84
2022/06/28 04:42:50;;;;;;;3.08;2.78;;;;;;;;;;4963004;28;20022;-83
2022/06/28 04:45:15;;;;;;;3.88;2.97;;;;;;;;;;4978786;28;20527;-84
2022/06/28 04:47:42;;;;;;;4.22;2.88;;;;;;;;;;4975512;28;20034;-84
2022/06/28 04:50:08;;;;;;;7.05;3.00;;;;;;;;;;4961361;28;20074;-84
2022/06/28 04:52:34;;;;;;;5.97;3.17;;;;;;;;;;4978975;28;20106;-84
2022/06/28 04:54:59;;;;;;;3.92;3.25;;;;;;;;;;4978825;28;20054;-84
2022/06/28 04:57:25;;;;;;;4.88;2.85;;;;;;;;;;4958482;28;20030;-84
2022/06/28 04:59:50;;;;;;;5.13;3.03;;;;;;;;;;4960683;28;20018;-84
2022/06/28 05:02:16;;;;;;;10.60;3.53;;;;;;;;;;4979222;28;20026;-84
2022/06/28 05:04:41;;;;;;;6.72;3.22;;;;;;;;;;4979558;28;20058;-84
2022/06/28 05:07:06;;;;;;;5.90;3.30;;;;;;;;;;4976320;28;20146;-84
2022/06/28 05:09:32;;;;;;;7.95;3.78;;;;;;;;;;4979786;28;20398;-84
2022/06/28 05:11:57;;;;;;;5.55;3.47;;;;;;;;;;4980361;28;20030;-83
2022/06/28 05:14:22;;;;;;;4.13;3.05;;;;;;;;;;4962529;28;20091;-83
2022/06/28 05:16:48;;;;;;;4.63;3.70;;;;;;;;;;4977373;28;20469;-82
2022/06/28 05:19:14;;;;;;;6.95;4.10;;;;;;;;;;4965258;28;20107;-86
2022/06/28 05:21:39;;;;;;;6.75;4.28;;;;;;;;;;4955162;28;20047;-82
2022/06/28 05:24:05;;;;;;;5.70;4.35;;;;;;;;;;4999394;28;20522;-85
2022/06/28 05:26:30;;;;;;;6.38;3.42;;;;;;;;;;4959874;28;20031;-85
2022/06/28 05:28:56;;;;;;;5.82;4.00;;;;;;;;;;4964447;28;20081;-85
2022/06/28 05:31:22;;;;;;;5.00;4.35;;;;;;;;;;4977999;28;20034;-86
2022/06/28 05:33:47;;;;;;;7.60;4.63;;;;;;;;;;4974362;28;20038;-87
2022/06/28 05:36:13;;;;;;;6.00;4.82;;;;;;;;;;4989311;28;20018;-85
2022/06/28 05:38:38;;;;;;;8.13;5.05;;;;;;;;;;4978365;28;20023;-86
2022/06/28 05:41:03;;;;;;;6.63;4.75;;;;;;;;;;4959245;28;20038;-84
2022/06/28 05:43:29;;;;;;;8.35;4.97;;;;;;;;;;4967148;28;20094;-81
2022/06/28 05:45:54;;;;;;;8.82;5.25;;;;;;;;;;4984044;28;20035;-85
2022/06/28 05:48:20;;;;;;;6.07;4.95;;;;;;;;;;4977989;28;20066;-83
2022/06/28 05:50:47;;;;;;;6.80;4.95;;;;;;;;;;4962700;28;20026;-85
2022/06/28 05:53:13;;;;;;;6.03;4.82;;;;;;;;;;4957333;29;20060;-84
2022/06/28 05:55:38;;;;;;;6.25;4.68;;;;;;;;;;4980280;28;20037;-84
2022/06/28 05:58:03;;;;;;;7.85;4.65;;;;;;;;;;4985861;28;20034;-84
2022/06/28 06:00:29;;;;;;;6.82;4.55;;;;;;;;;;4979809;28;20062;-83
2022/06/28 06:02:54;;;;;;;7.18;4.28;;;;;;;;;;4984258;28;20030;-84
2022/06/28 06:05:19;;;;;;;6.95;5.40;;;;;;;;;;4981459;28;20033;-84
2022/06/28 06:07:45;;;;;;;7.03;4.55;;;;;;;;;;4959910;28;20050;-84
2022/06/28 06:10:10;;;;;;;5.38;4.65;;;;;;;;;;4958423;28;20034;-85
2022/06/28 06:12:36;;;;;;;8.05;4.63;;;;;;;;;;4959757;28;20029;-85
2022/06/28 06:15:01;;;;;;;7.28;5.20;;;;;;;;;;4979778;28;20030;-84
2022/06/28 06:17:27;;;;;;;6.07;4.55;;;;;;;;;;4960905;28;20023;-88
2022/06/28 06:19:52;;;;;;;4.88;4.32;;;;;;;;;;4963233;28;20490;-84
2022/06/28 06:22:18;;;;;;;5.80;4.65;;;;;;;;;;4980657;28;20090;-84
2022/06/28 06:24:43;;;;;;;8.02;4.40;;;;;;;;;;4973300;28;20117;-85
2022/06/28 06:27:08;;;;;;;4.90;4.32;;;;;;;;;;4961691;28;20033;-84
2022/06/28 06:29:37;;;;;;;9.95;4.30;;;;;;;;;;4985457;28;20030;-84
2022/06/28 06:32:02;;;;;;;5.28;4.30;;;;;;;;;;4962814;28;20029;-86
2022/06/28 06:34:28;;;;;;;5.45;4.25;;;;;;;;;;4980312;28;20038;-85
2022/06/28 06:36:53;;;;;;;4.55;3.75;;;;;;;;;;4984985;28;20030;-84
2022/06/28 06:39:19;;;;;;;7.05;4.57;;;;;;;;;;4985319;28;20022;-84
2022/06/28 06:41:45;;;;;;;8.77;4.07;;;;;;;;;;5001734;28;20038;-85
2022/06/28 06:44:10;;;;;;;5.57;4.13;;;;;;;;;;4983226;28;20122;-85
2022/06/28 06:46:36;;;;;;;4.63;3.67;;;;;;;;;;5001065;28;20026;-85
2022/06/28 06:49:02;;;;;;;3.58;3.22;;;;;;;;;;4984379;28;20057;-85
2022/06/28 06:51:30;;;;;;;3.78;3.20;;;;;;;;;;4983628;28;20230;-85
2022/06/28 06:53:56;;;;;;;3.75;3.35;;;;;;;;;;4987247;28;20520;-85
2022/06/28 06:56:21;;;;;;;5.18;3.20;;;;;;;;;;4986418;23;20062;-81
2022/06/28 06:58:47;;;;;;;6.47;3.10;;;;;;;;;;4963848;28;20051;-81
2022/06/28 07:01:12;;;;;;;4.35;3.35;;;;;;;;;;4967161;28;20019;-83
2022/06/28 07:03:44;;;;;;;4.60;3.55;;;;;;;;;;4964796;28;20031;-83
2022/06/28 07:06:10;;;;;;;4.13;3.05;;;;;;;;;;4964082;28;20034;-83
2022/06/28 07:08:35;;;;;;;3.50;2.92;;;;;;;;;;4976351;28;20027;-82
2022/06/28 07:11:00;;;;;;;3.10;2.80;;;;;;;;;;4975925;28;20049;-82
2022/06/28 07:13:26;;;;;;;3.22;2.92;;;;;;;;;;4967240;28;20031;-81
2022/06/28 07:15:52;;;;;;;5.00;3.58;;;;;;;;;;4957314;28;20038;-82
2022/06/28 07:18:18;;;;;;;4.30;3.90;;;;;;;;;;4969873;28;20027;-82
2022/06/28 07:20:43;;;;;;;5.85;3.50;;;;;;;;;;4974808;28;20038;-81
2022/06/28 07:23:08;;;;;;;6.03;4.00;;;;;;;;;;4972907;28;20054;-81
2022/06/28 07:25:34;;;;;;;4.32;3.30;;;;;;;;;;4970193;28;20389;-81
2022/06/28 07:27:59;;;;;;;6.50;3.70;;;;;;;;;;4970840;28;20030;-81
2022/06/28 07:30:24;;;;;;;4.15;3.45;;;;;;;;;;4962496;28;20034;-82
2022/06/28 07:32:50;;;;;;;6.53;3.88;;;;;;;;;;4970910;28;20065;-82
2022/06/28 07:35:18;;;;;;;5.65;3.80;;;;;;;;;;4964444;28;20031;-81
2022/06/28 07:37:44;;;;;;;6.07;3.92;;;;;;;;;;4972681;28;20022;-81
2022/06/28 07:40:10;;;;;;;4.43;3.30;;;;;;;;;;4972186;28;20030;-82
2022/06/28 07:42:36;;;;;;;5.80;3.70;;;;;;;;;;4971447;28;20030;-82
2022/06/28 07:45:01;;;;;;;4.68;3.53;;;;;;;;;;4966576;28;20034;-82
2022/06/28 07:47:27;;;;;;;4.13;3.55;;;;;;;;;;4974924;28;20026;-83
2022/06/28 07:52:39;;;;;;;9.45;3.60;;;;;;;;;;4961963;28;20034;-82
2022/06/28 07:55:07;;;;;;;5.78;3.72;;;;;;;;;;4962108;28;20047;-83
2022/06/28 07:57:32;;;;;;;6.65;4.05;;;;;;;;;;4978280;28;20432;-82
2022/06/28 07:59:58;;;;;;;4.57;3.50;;;;;;;;;;4981310;28;20469;-81
2022/06/28 08:02:23;;;;;;;3.63;3.20;;;;;;;;;;4978990;28;20030;-82
2022/06/28 08:04:49;;;;;;;3.20;2.72;;;;;;;;;;4980381;28;20026;-82
2022/06/28 08:07:15;;;;;;;5.85;3.25;;;;;;;;;;4980298;28;20026;-82
2022/06/28 08:09:40;;;;;;;4.78;2.97;;;;;;;;;;4977486;28;20027;-81
2022/06/28 08:12:07;;;;;;;4.43;2.97;;;;;;;;;;4972182;28;20399;-83
2022/06/28 08:14:32;;;;;;;5.20;2.92;;;;;;;;;;4976930;28;20504;-83
2022/06/28 08:16:58;;;;;;;3.20;2.92;;;;;;;;;;4974190;28;20031;-83
2022/06/28 08:19:23;;;;;;;6.47;2.90;;;;;;;;;;4976788;28;20042;-82
2022/06/28 08:21:49;;;;;;;4.38;2.95;;;;;;;;;;4979910;28;20077;-82
2022/06/28 08:24:15;;;;;;;3.20;2.90;;;;;;;;;;4980219;28;20114;-82
2022/06/28 08:26:42;;;;;;;4.20;2.83;;;;;;;;;;4978651;28;20083;-84
2022/06/28 08:29:09;;;;;;;9.80;2.90;;;;;;;;;;4977187;28;20030;-83
2022/06/28 08:31:34;;;;;;;4.20;2.67;;;;;;;;;;4978353;28;20039;-83
2022/06/28 08:33:59;;;;;;;3.45;2.80;;;;;;;;;;4976462;28;20031;-84
2022/06/28 08:36:25;;;;;;;3.95;2.80;;;;;;;;;;4977142;28;20038;-84
2022/06/28 08:38:50;;;;;;;3.33;2.97;;;;;;;;;;4979057;28;20034;-82
2022/06/28 08:41:16;;;;;;;4.32;2.88;;;;;;;;;;4980027;28;20362;-81
2022/06/28 08:43:41;;;;;;;4.60;2.60;;;;;;;;;;4979943;28;20122;-83
2022/06/28 08:46:07;;;;;;;3.00;2.70;;;;;;;;;;4973376;28;20023;-82
2022/06/28 08:48:39;;;;;;;4.03;2.15;;;;;;;;;;4970899;28;20018;-80
2022/06/28 08:51:07;;;;;;;3.42;2.33;;;;;;;;;;4977980;28;20031;-81
2022/06/28 08:53:33;;;;;;;3.63;2.25;;;;;;;;;;4970872;28;20493;-80
2022/06/28 08:55:59;;;;;;;2.40;2.20;;;;;;;;;;4965116;28;20077;-81
2022/06/28 08:58:26;;;;;;;3.28;2.00;;;;;;;;;;4968324;28;20035;-81
2022/06/28 09:00:51;;;;;;;2.72;1.90;;;;;;;;;;4970896;28;20030;-81
2022/06/28 09:03:19;;;;;;;3.45;1.40;;;;;;;;;;4978135;28;20038;-81
2022/06/28 09:05:44;;;;;;;1.85;1.48;;;;;;;;;;4978856;28;20042;-82
2022/06/28 09:08:10;;;;;;;1.42;1.30;;;;;;;;;;4979149;28;20086;-82
2022/06/28 09:10:36;;;;;;;1.60;1.27;;;;;;;;;;4978527;28;20045;-82
2022/06/28 09:13:11;;;;;;;1.85;1.58;;;;;;;;;;4979635;28;20085;-81
2022/06/28 09:15:57;;;;;;;2.70;1.67;;;;;;;;;;4979234;28;20026;-81
2022/06/28 09:18:47;;;;;;;4.32;1.60;;;;;;;;;;4973335;28;20035;-82
2022/06/28 09:21:15;;;;;;;1.85;1.40;;;;;;;;;;4972018;28;20039;-82
2022/06/28 09:23:44;;;;;;;1.40;1.30;;;;;;;;;;4969318;28;20034;-82
2022/06/28 09:26:11;;;;;;;1.40;1.30;;;;;;;;;;4974518;28;20030;-82
2022/06/28 09:28:45;;;;;;;1.23;1.13;;;;;;;;;;4972585;28;20091;-82
2022/06/28 09:31:20;;;;;;;1.98;1.60;;;;;;;;;;4976644;28;20033;-82
2022/06/28 09:34:03;;;;;;;1.25;1.15;;;;;;;;;;4976949;28;20022;-82
2022/06/28 09:36:33;;;;;;;1.38;1.23;;;;;;;;;;4975674;28;20367;-82
2022/06/28 09:39:28;;;;;;;1.25;1.20;;;;;;;;;;4979938;28;20084;-82
2022/06/28 09:41:55;;;;;;;1.10;1.10;;;;;;;;;;4964355;28;20034;-82
2022/06/28 09:44:29;;;;;;;1.13;1.00;;;;;;;;;;4979397;28;20022;-82
2022/06/28 09:46:57;;;;;;;1.23;1.13;;;;;;;;;;4967631;28;20038;-82
2022/06/28 09:49:29;;;;;;;2.65;1.23;;;;;;;;;;4974520;28;20520;-81
2022/06/28 09:51:57;;;;;;;1.52;1.08;;;;;;;;;;4973891;28;20070;-82
2022/06/28 09:54:26;;;;;;;2.72;1.00;;;;;;;;;;4975406;28;20504;-82
2022/06/28 09:56:54;;;;;;;1.95;1.33;;;;;;;;;;4975829;28;20046;-83
2022/06/28 09:59:21;;;;;;;1.80;1.10;;;;;;;;;;4976484;28;20030;-83
2022/06/28 10:01:55;;;;;;;1.00;1.00;;;;;;;;;;4976174;28;20022;-82
2022/06/28 10:04:22;;;;;;;1.63;1.35;;;;;;;;;;4975973;28;20069;-83
2022/06/28 10:06:48;;;;;;;1.73;1.20;;;;;;;;;;4975198;28;20035;-83
2022/06/28 10:09:29;;;;;;;2.65;1.23;;;;;;;;;;4967327;28;20026;-82
2022/06/28 10:17:44;;;;;;;1.52;1.05;;;;;;;;;;4962703;28;20042;-79
2022/06/28 10:20:15;;;;;;;1.15;1.00;;;;;;;;;;4965747;28;20074;-81
2022/06/28 10:22:40;;;;;;;4.43;1.10;;;;;;;;;;4978619;28;20122;-81
2022/06/28 10:25:26;;;;;;;0.90;0.90;;;;;;;;;;4977670;28;20054;-80
2022/06/28 10:27:52;;;;;;;1.38;1.10;;;;;;;;;;4968248;28;20086;-85
2022/06/28 10:30:18;;;;;;;1.05;1.05;;;;;;;;;;4960750;28;20098;-83
2022/06/28 10:32:45;;;;;;;1.35;1.25;;;;;;;;;;4963070;28;20023;-85
2022/06/28 10:35:33;;;;;;;1.27;1.17;;;;;;;;;;4960224;28;20058;-83
2022/06/28 10:38:07;;;;;;;1.13;1.02;;;;;;;;;;4959693;28;20027;-83
2022/06/28 10:40:53;;;;;;;2.50;0.95;;;;;;;;;;4960543;28;20034;-82
2022/06/28 10:47:16;;;;;;;1.95;0.90;;;;;;;;;;4931434;29;20092;-85
2022/06/28 10:49:57;;;;;;;1.40;1.30;;;;;;;;;;4934774;29;20024;-86
2022/06/28 10:52:41;;;;;;;0.90;0.90;;;;;;;;;;4955188;29;20435;-83
2022/06/28 10:55:06;;;;;;;1.77;1.33;;;;;;;;;;4958008;28;20055;-83
2022/06/28 10:57:42;;;;;;;0.70;0.70;;;;;;;;;;4959570;28;20038;-79
2022/06/28 11:00:10;;;;;;;5.32;1.35;;;;;;;;;;4976190;28;20030;-82
2022/06/28 11:02:44;;;;;;;0.70;0.70;;;;;;;;;;4960243;28;20023;-79
2022/06/28 11:05:10;;;;;;;2.05;1.10;;;;;;;;;;4960439;28;20031;-81
2022/06/28 11:07:39;;;;;;;1.35;0.98;;;;;;;;;;4959970;28;20054;-80
2022/06/28 11:10:14;;;;;;;1.88;1.40;;;;;;;;;;4965516;28;20015;-85
2022/06/28 11:12:41;;;;;;;2.40;1.10;;;;;;;;;;4979865;28;20031;-85
2022/06/28 11:15:29;;;;;;;1.10;1.10;;;;;;;;;;4979227;28;20018;-84
2022/06/28 11:17:55;;;;;;;1.17;1.08;;;;;;;;;;4958567;28;20529;-83
2022/06/28 11:20:59;;;;;;;6.07;2.35;;;;;;;;;;4973352;28;20066;-82
2022/06/28 11:23:30;;;;;;;0.70;0.70;;;;;;;;;;4976154;28;20031;-83
2022/06/28 11:29:18;;;;;;;1.30;1.20;;;;;;;;;;4901445;29;20036;-83
2022/06/28 11:31:44;;;;;;;0.90;0.90;;;;;;;;;;4966057;28;20038;-83
2022/06/28 11:34:09;;;;;;;1.10;1.10;;;;;;;;;;4962593;28;20030;-82
2022/06/28 11:36:35;;;;;;;1.38;0.90;;;;;;;;;;4963891;28;20039;-82
2022/06/28 11:39:18;;;;;;;0.80;0.80;;;;;;;;;;4963598;28;20082;-84
2022/06/28 11:41:48;;;;;;;0.82;0.82;;;;;;;;;;4959574;28;20539;-82
2022/06/28 11:44:14;;;;;;;1.20;1.00;;;;;;;;;;4959113;28;20042;-83
2022/06/28 11:46:39;;;;;;;1.00;1.00;;;;;;;;;;4970240;28;20030;-84
2022/06/28 11:49:05;;;;;;;1.67;1.10;;;;;;;;;;4968705;28;20050;-82
2022/06/28 11:51:31;;;;;;;2.90;1.00;;;;;;;;;;4976219;28;20027;-81
2022/06/28 11:53:59;;;;;;;0.82;0.82;;;;;;;;;;4977911;28;20462;-82
2022/06/28 11:56:26;;;;;;;1.92;1.40;;;;;;;;;;4975885;28;20597;-81
2022/06/28 11:58:52;;;;;;;1.00;0.95;;;;;;;;;;4975493;28;20030;-83
2022/06/28 12:01:19;;;;;;;2.25;1.08;;;;;;;;;;4980011;28;20031;-83
2022/06/28 12:03:45;;;;;;;1.35;1.10;;;;;;;;;;4966682;28;20474;-81
2022/06/28 12:06:13;;;;;;;1.88;1.00;;;;;;;;;;4973900;28;20126;-82
2022/06/28 12:08:58;;;;;;;1.55;1.00;;;;;;;;;;4976009;28;20029;-80
2022/06/28 12:11:34;;;;;;;4.95;1.23;;;;;;;;;;4974440;28;20560;-81
2022/06/28 12:14:03;;;;;;;0.90;0.85;;;;;;;;;;4976818;28;20045;-82
2022/06/28 12:16:43;;;;;;;0.90;0.90;;;;;;;;;;4965992;28;20031;-83
2022/06/28 12:19:14;;;;;;;3.00;1.00;;;;;;;;;;4966243;28;20051;-84
2022/06/28 12:22:03;;;;;;;0.90;0.90;;;;;;;;;;4965312;28;20131;-84
2022/06/28 12:24:43;;;;;;;3.97;0.90;;;;;;;;;;4959072;28;20023;-84
2022/06/28 12:27:10;;;;;;;0.85;0.75;;;;;;;;;;4958574;29;20029;-84
2022/06/28 12:29:35;;;;;;;1.13;1.02;;;;;;;;;;4959206;28;20027;-85
2022/06/28 12:32:01;;;;;;;1.88;1.00;;;;;;;;;;4958900;29;20118;-83
2022/06/28 12:34:27;;;;;;;5.63;1.00;;;;;;;;;;4960412;28;20031;-85
2022/06/28 12:36:52;;;;;;;1.17;0.77;;;;;;;;;;4963459;28;20614;-85
2022/06/28 12:39:17;;;;;;;1.85;0.90;;;;;;;;;;4961548;28;20031;-84
2022/06/28 12:41:43;;;;;;;3.42;0.80;;;;;;;;;;4963124;28;20023;-84
2022/06/28 12:44:08;;;;;;;0.70;0.70;;;;;;;;;;4963320;28;20027;-84
2022/06/28 12:46:34;;;;;;;1.30;0.70;;;;;;;;;;4970229;28;20042;-84
2022/06/28 12:48:59;;;;;;;0.80;0.80;;;;;;;;;;4969429;28;20016;-83
2022/06/28 12:51:25;;;;;;;1.05;0.70;;;;;;;;;;4962692;28;20042;-84
2022/06/28 12:53:51;;;;;;;1.75;0.98;;;;;;;;;;4961417;29;20019;-84
2022/06/28 12:56:16;;;;;;;1.95;0.80;;;;;;;;;;4960425;28;20086;-83
2022/06/28 12:58:44;;;;;;;0.85;0.80;;;;;;;;;;4961455;29;20028;-84
2022/06/28 13:01:10;;;;;;;0.80;0.80;;;;;;;;;;4962874;29;20030;-83
2022/06/28 13:03:35;;;;;;;1.80;0.90;;;;;;;;;;4966755;28;20031;-84
2022/06/28 13:06:00;;;;;;;1.08;0.98;;;;;;;;;;4961368;29;20031;-83
2022/06/28 13:08:26;;;;;;;1.42;0.90;;;;;;;;;;4969034;28;20519;-84
2022/06/28 13:10:51;;;;;;;1.58;0.68;;;;;;;;;;4982743;28;20089;-85
2022/06/28 13:13:20;;;;;;;0.80;0.80;;;;;;;;;;4982844;28;20050;-85
2022/06/28 13:15:45;;;;;;;3.80;1.20;;;;;;;;;;4976733;28;20023;-84
2022/06/28 13:18:11;;;;;;;0.68;0.68;;;;;;;;;;4969703;28;20025;-84
2022/06/28 13:20:36;;;;;;;1.20;1.00;;;;;;;;;;4962034;28;20390;-84
2022/06/28 13:23:03;;;;;;;3.10;0.90;;;;;;;;;;4961172;29;20027;-84
2022/06/28 13:25:28;;;;;;;2.25;0.80;;;;;;;;;;4967800;28;20082;-85
2022/06/28 13:27:53;;;;;;;1.85;1.13;;;;;;;;;;4972979;28;20023;-83
2022/06/28 13:30:19;;;;;;;1.02;1.00;;;;;;;;;;4980574;28;20019;-84
2022/06/28 13:32:45;;;;;;;1.90;0.90;;;;;;;;;;4980890;28;20038;-84
2022/06/28 13:35:10;;;;;;;1.30;0.90;;;;;;;;;;4979835;28;20469;-84
2022/06/28 13:37:36;;;;;;;5.47;1.02;;;;;;;;;;4980923;28;20106;-82
2022/06/28 13:40:02;;;;;;;2.55;1.13;;;;;;;;;;4979443;28;20027;-83
2022/06/28 13:42:27;;;;;;;0.82;0.75;;;;;;;;;;4980032;28;20370;-84
2022/06/28 13:44:52;;;;;;;1.27;0.75;;;;;;;;;;4979156;28;20054;-84
2022/06/28 13:47:18;;;;;;;3.17;1.17;;;;;;;;;;4963931;28;20050;-84
2022/06/28 13:49:43;;;;;;;0.90;0.90;;;;;;;;;;4970027;28;20015;-85
2022/06/28 13:52:09;;;;;;;2.30;0.98;;;;;;;;;;4961885;28;20023;-84
2022/06/28 13:54:35;;;;;;;0.90;0.90;;;;;;;;;;4970868;28;20033;-81
2022/06/28 13:57:01;;;;;;;1.98;0.88;;;;;;;;;;4980846;28;20041;-84
2022/06/28 13:59:26;;;;;;;0.90;0.77;;;;;;;;;;4981045;28;20027;-84
2022/06/28 14:01:52;;;;;;;1.00;0.80;;;;;;;;;;4979198;28;20062;-84
2022/06/28 14:04:17;;;;;;;1.45;1.05;;;;;;;;;;4962168;28;20023;-83
2022/06/28 14:06:43;;;;;;;1.13;0.90;;;;;;;;;;4961569;28;20027;-84
2022/06/28 14:09:08;;;;;;;0.95;0.95;;;;;;;;;;4961605;28;20102;-84
2022/06/28 14:11:34;;;;;;;2.10;1.05;;;;;;;;;;4980657;28;20038;-84
2022/06/28 14:13:59;;;;;;;2.22;1.00;;;;;;;;;;4980720;28;20511;-83
2022/06/28 14:16:25;;;;;;;1.65;0.85;;;;;;;;;;4972550;28;20035;-83
2022/06/28 14:18:50;;;;;;;3.80;0.90;;;;;;;;;;4977220;28;20031;-87
2022/06/28 14:21:16;;;;;;;2.13;0.88;;;;;;;;;;4980033;28;20113;-83
2022/06/28 14:23:41;;;;;;;1.25;0.90;;;;;;;;;;4976057;28;20046;-84
2022/06/28 14:26:07;;;;;;;1.60;1.10;;;;;;;;;;4962568;28;20019;-82
2022/06/28 14:28:32;;;;;;;1.08;0.90;;;;;;;;;;4966462;28;20026;-84
2022/06/28 14:30:58;;;;;;;0.82;0.77;;;;;;;;;;4967814;28;20050;-83
2022/06/28 14:33:23;;;;;;;2.70;0.90;;;;;;;;;;4964677;28;20073;-84
2022/06/28 14:35:49;;;;;;;0.82;0.82;;;;;;;;;;4961692;28;20046;-83
2022/06/28 14:38:16;;;;;;;1.13;0.93;;;;;;;;;;4966860;28;20051;-84
2022/06/28 14:40:42;;;;;;;0.95;0.82;;;;;;;;;;4961160;28;20039;-84
2022/06/28 14:43:08;;;;;;;1.38;0.77;;;;;;;;;;4962015;28;20023;-83
2022/06/28 14:45:33;;;;;;;2.70;1.13;;;;;;;;;;4963083;28;20037;-83
2022/06/28 14:47:58;;;;;;;2.42;0.90;;;;;;;;;;4971880;28;20023;-86
2022/06/28 14:50:24;;;;;;;1.20;1.10;;;;;;;;;;4963453;28;20023;-82
2022/06/28 14:52:49;;;;;;;2.45;1.00;;;;;;;;;;4966674;28;20501;-83
2022/06/28 14:55:15;;;;;;;1.88;0.95;;;;;;;;;;4979370;28;20057;-81
2022/06/28 14:57:40;;;;;;;2.05;1.10;;;;;;;;;;4979216;28;20030;-84
2022/06/28 15:00:09;;;;;;;1.35;1.13;;;;;;;;;;4979843;28;20023;-82
2022/06/28 15:02:35;;;;;;;0.80;0.80;;;;;;;;;;4977351;28;20085;-84
2022/06/28 15:05:01;;;;;;;4.32;0.98;;;;;;;;;;4970762;28;20033;-82